sensor_id;sensor_type;location;lat;lon;timestamp;temperature;humidity
57026;DHT22;43961;52.940;6.834;2024-02-26T00:01:41;3.70;99.90
57026;DHT22;43961;52.940;6.834;2024-02-26T00:04:09;3.60;99.90
57026;DHT22;43961;52.940;6.834;2024-02-26T00:06:34;3.60;99.90
57026;DHT22;43961;52.940;6.834;2024-02-26T00:09:00;3.60;99.90
57026;DHT22;43961;52.940;6.834;2024-02-26T00:11:28;3.50;99.90
57026;DHT22;43961;52.940;6.834;2024-02-26T00:13:53;3.50;99.90
57026;DHT22;43961;52.940;6.834;2024-02-26T00:16:19;3.50;99.90
57026;DHT22;43961;52.940;6.834;2024-02-26T00:18:44;3.50;99.90
57026;DHT22;43961;52.940;6.834;2024-02-26T00:21:10;3.60;99.90
57026;DHT22;43961;52.940;6.834;2024-02-26T00:23:36;3.60;99.90
57026;DHT22;43961;52.940;6.834;2024-02-26T00:26:01;3.50;99.90
57026;DHT22;43961;52.940;6.834;2024-02-26T00:28:27;3.50;99.90
57026;DHT22;43961;52.940;6.834;2024-02-26T00:30:54;3.50;99.90
57026;DHT22;43961;52.940;6.834;2024-02-26T00:33:21;3.50;99.90
57026;DHT22;43961;52.940;6.834;2024-02-26T00:35:48;3.50;99.90
57026;DHT22;43961;52.940;6.834;2024-02-26T00:38:13;3.50;99.90
57026;DHT22;43961;52.940;6.834;2024-02-26T00:40:39;3.50;99.90
57026;DHT22;43961;52.940;6.834;2024-02-26T00:43:06;3.50;99.90
57026;DHT22;43961;52.940;6.834;2024-02-26T00:45:32;3.50;99.90
57026;DHT22;43961;52.940;6.834;2024-02-26T00:47:58;3.50;99.90
57026;DHT22;43961;52.940;6.834;2024-02-26T00:50:24;3.50;99.90
57026;DHT22;43961;52.940;6.834;2024-02-26T00:52:50;3.50;99.90
57026;DHT22;43961;52.940;6.834;2024-02-26T00:55:16;3.50;99.90
57026;DHT22;43961;52.940;6.834;2024-02-26T00:57:42;3.50;99.90
57026;DHT22;43961;52.940;6.834;2024-02-26T01:00:07;3.50;99.90
57026;DHT22;43961;52.940;6.834;2024-02-26T01:02:36;3.50;99.90
57026;DHT22;43961;52.940;6.834;2024-02-26T01:05:02;3.50;99.90
57026;DHT22;43961;52.940;6.834;2024-02-26T01:07:28;3.50;99.90
57026;DHT22;43961;52.940;6.834;2024-02-26T01:09:53;3.50;99.90
57026;DHT22;43961;52.940;6.834;2024-02-26T01:12:19;3.50;99.90
57026;DHT22;43961;52.940;6.834;2024-02-26T01:14:45;3.40;99.90
57026;DHT22;43961;52.940;6.834;2024-02-26T01:17:10;3.50;99.90
57026;DHT22;43961;52.940;6.834;2024-02-26T01:19:36;3.40;99.90
57026;DHT22;43961;52.940;6.834;2024-02-26T01:22:01;3.40;99.90
57026;DHT22;43961;52.940;6.834;2024-02-26T01:24:29;3.40;99.90
57026;DHT22;43961;52.940;6.834;2024-02-26T01:26:54;3.40;99.90
57026;DHT22;43961;52.940;6.834;2024-02-26T01:29:20;3.40;99.90
57026;DHT22;43961;52.940;6.834;2024-02-26T01:31:46;3.40;99.90
57026;DHT22;43961;52.940;6.834;2024-02-26T01:34:11;3.40;99.90
57026;DHT22;43961;52.940;6.834;2024-02-26T01:36:37;3.40;99.90
57026;DHT22;43961;52.940;6.834;2024-02-26T01:39:02;3.40;99.90
57026;DHT22;43961;52.940;6.834;2024-02-26T01:41:29;3.40;99.90
57026;DHT22;43961;52.940;6.834;2024-02-26T01:43:55;3.40;99.90
57026;DHT22;43961;52.940;6.834;2024-02-26T01:46:20;3.40;99.90
57026;DHT22;43961;52.940;6.834;2024-02-26T01:48:47;3.40;99.90
57026;DHT22;43961;52.940;6.834;2024-02-26T01:51:15;3.40;99.90
57026;DHT22;43961;52.940;6.834;2024-02-26T01:53:43;3.30;99.90
57026;DHT22;43961;52.940;6.834;2024-02-26T01:56:09;3.30;99.90
57026;DHT22;43961;52.940;6.834;2024-02-26T01:58:35;3.30;99.90
57026;DHT22;43961;52.940;6.834;2024-02-26T02:01:02;3.30;99.90
57026;DHT22;43961;52.940;6.834;2024-02-26T02:03:28;3.30;99.90
57026;DHT22;43961;52.940;6.834;2024-02-26T02:05:54;3.30;99.90
57026;DHT22;43961;52.940;6.834;2024-02-26T02:08:21;3.30;99.90
57026;DHT22;43961;52.940;6.834;2024-02-26T02:10:49;3.30;99.90
57026;DHT22;43961;52.940;6.834;2024-02-26T02:13:15;3.30;99.90
57026;DHT22;43961;52.940;6.834;2024-02-26T02:15:41;3.30;99.90
57026;DHT22;43961;52.940;6.834;2024-02-26T02:18:07;3.20;99.90
57026;DHT22;43961;52.940;6.834;2024-02-26T02:20:33;3.30;99.90
57026;DHT22;43961;52.940;6.834;2024-02-26T02:22:59;3.30;99.90
57026;DHT22;43961;52.940;6.834;2024-02-26T02:25:25;3.30;99.90
57026;DHT22;43961;52.940;6.834;2024-02-26T02:27:53;3.30;99.90
57026;DHT22;43961;52.940;6.834;2024-02-26T02:30:20;3.30;99.90
57026;DHT22;43961;52.940;6.834;2024-02-26T02:32:46;3.40;99.90
57026;DHT22;43961;52.940;6.834;2024-02-26T02:35:11;3.40;99.90
57026;DHT22;43961;52.940;6.834;2024-02-26T02:37:37;3.30;99.90
57026;DHT22;43961;52.940;6.834;2024-02-26T02:40:03;3.40;99.90
57026;DHT22;43961;52.940;6.834;2024-02-26T02:42:29;3.40;99.90
57026;DHT22;43961;52.940;6.834;2024-02-26T02:44:55;3.40;99.90
57026;DHT22;43961;52.940;6.834;2024-02-26T02:47:21;3.40;99.90
57026;DHT22;43961;52.940;6.834;2024-02-26T02:49:46;3.40;99.90
57026;DHT22;43961;52.940;6.834;2024-02-26T02:52:12;3.40;99.90
57026;DHT22;43961;52.940;6.834;2024-02-26T02:54:37;3.40;99.90
57026;DHT22;43961;52.940;6.834;2024-02-26T02:57:05;3.40;99.90
57026;DHT22;43961;52.940;6.834;2024-02-26T02:59:31;3.40;99.90
57026;DHT22;43961;52.940;6.834;2024-02-26T03:01:57;3.50;99.90
57026;DHT22;43961;52.940;6.834;2024-02-26T03:04:22;3.50;99.90
57026;DHT22;43961;52.940;6.834;2024-02-26T03:06:48;3.50;99.90
57026;DHT22;43961;52.940;6.834;2024-02-26T03:09:14;3.50;99.90
57026;DHT22;43961;52.940;6.834;2024-02-26T03:11:39;3.50;99.90
57026;DHT22;43961;52.940;6.834;2024-02-26T03:14:05;3.40;99.90
57026;DHT22;43961;52.940;6.834;2024-02-26T03:16:31;3.40;99.90
57026;DHT22;43961;52.940;6.834;2024-02-26T03:18:57;3.50;99.90
57026;DHT22;43961;52.940;6.834;2024-02-26T03:21:25;3.40;99.90
57026;DHT22;43961;52.940;6.834;2024-02-26T03:23:50;3.50;99.90
57026;DHT22;43961;52.940;6.834;2024-02-26T03:26:16;3.50;99.90
57026;DHT22;43961;52.940;6.834;2024-02-26T03:28:42;3.50;99.90
57026;DHT22;43961;52.940;6.834;2024-02-26T03:31:07;3.50;99.90
57026;DHT22;43961;52.940;6.834;2024-02-26T03:33:34;3.60;99.90
57026;DHT22;43961;52.940;6.834;2024-02-26T03:36:00;3.60;99.90
57026;DHT22;43961;52.940;6.834;2024-02-26T03:38:25;3.60;99.90
57026;DHT22;43961;52.940;6.834;2024-02-26T03:40:51;3.60;99.90
57026;DHT22;43961;52.940;6.834;2024-02-26T03:43:17;3.70;99.90
57026;DHT22;43961;52.940;6.834;2024-02-26T03:45:42;3.70;99.90
57026;DHT22;43961;52.940;6.834;2024-02-26T03:48:08;3.70;99.90
57026;DHT22;43961;52.940;6.834;2024-02-26T03:50:34;3.70;99.90
57026;DHT22;43961;52.940;6.834;2024-02-26T03:53:00;3.80;99.90
57026;DHT22;43961;52.940;6.834;2024-02-26T03:55:25;3.70;99.90
57026;DHT22;43961;52.940;6.834;2024-02-26T03:57:51;3.80;99.90
57026;DHT22;43961;52.940;6.834;2024-02-26T04:00:18;3.80;99.90
57026;DHT22;43961;52.940;6.834;2024-02-26T04:02:43;3.90;99.90
57026;DHT22;43961;52.940;6.834;2024-02-26T04:05:10;3.90;99.90
57026;DHT22;43961;52.940;6.834;2024-02-26T04:07:36;3.90;99.90
57026;DHT22;43961;52.940;6.834;2024-02-26T04:10:02;4.00;99.90
57026;DHT22;43961;52.940;6.834;2024-02-26T04:12:30;4.00;99.90
57026;DHT22;43961;52.940;6.834;2024-02-26T04:14:57;4.00;99.90
57026;DHT22;43961;52.940;6.834;2024-02-26T04:17:22;4.00;99.90
57026;DHT22;43961;52.940;6.834;2024-02-26T04:19:48;4.00;99.90
57026;DHT22;43961;52.940;6.834;2024-02-26T04:22:13;4.00;99.90
57026;DHT22;43961;52.940;6.834;2024-02-26T04:24:39;4.00;99.90
57026;DHT22;43961;52.940;6.834;2024-02-26T04:27:05;4.00;99.90
57026;DHT22;43961;52.940;6.834;2024-02-26T04:29:30;4.00;99.90
57026;DHT22;43961;52.940;6.834;2024-02-26T04:31:56;3.90;99.90
57026;DHT22;43961;52.940;6.834;2024-02-26T04:34:21;3.90;99.90
57026;DHT22;43961;52.940;6.834;2024-02-26T04:36:47;3.90;99.90
57026;DHT22;43961;52.940;6.834;2024-02-26T04:39:13;3.80;99.90
57026;DHT22;43961;52.940;6.834;2024-02-26T04:41:39;3.80;99.90
57026;DHT22;43961;52.940;6.834;2024-02-26T04:44:05;3.70;99.90
57026;DHT22;43961;52.940;6.834;2024-02-26T04:46:31;3.70;99.90
57026;DHT22;43961;52.940;6.834;2024-02-26T04:48:56;3.60;99.90
57026;DHT22;43961;52.940;6.834;2024-02-26T04:51:22;3.50;99.90
57026;DHT22;43961;52.940;6.834;2024-02-26T04:53:48;3.50;99.90
57026;DHT22;43961;52.940;6.834;2024-02-26T04:56:13;3.40;99.90
57026;DHT22;43961;52.940;6.834;2024-02-26T04:58:39;3.40;99.90
57026;DHT22;43961;52.940;6.834;2024-02-26T05:01:05;3.30;99.90
57026;DHT22;43961;52.940;6.834;2024-02-26T05:03:31;3.30;99.90
57026;DHT22;43961;52.940;6.834;2024-02-26T05:05:56;3.30;99.90
57026;DHT22;43961;52.940;6.834;2024-02-26T05:08:23;3.20;99.90
57026;DHT22;43961;52.940;6.834;2024-02-26T05:10:50;3.20;99.90
57026;DHT22;43961;52.940;6.834;2024-02-26T05:13:16;3.20;99.90
57026;DHT22;43961;52.940;6.834;2024-02-26T05:15:43;3.20;99.90
57026;DHT22;43961;52.940;6.834;2024-02-26T05:18:10;3.20;99.90
57026;DHT22;43961;52.940;6.834;2024-02-26T05:20:36;3.20;99.90
57026;DHT22;43961;52.940;6.834;2024-02-26T05:23:03;3.20;99.90
57026;DHT22;43961;52.940;6.834;2024-02-26T05:25:29;3.20;99.90
57026;DHT22;43961;52.940;6.834;2024-02-26T05:27:54;3.20;99.90
57026;DHT22;43961;52.940;6.834;2024-02-26T05:30:20;3.20;99.90
57026;DHT22;43961;52.940;6.834;2024-02-26T05:32:46;3.20;99.90
57026;DHT22;43961;52.940;6.834;2024-02-26T05:35:11;3.20;99.90
57026;DHT22;43961;52.940;6.834;2024-02-26T05:37:37;3.20;99.90
57026;DHT22;43961;52.940;6.834;2024-02-26T05:40:03;3.20;99.90
57026;DHT22;43961;52.940;6.834;2024-02-26T05:42:30;3.20;99.90
57026;DHT22;43961;52.940;6.834;2024-02-26T05:44:55;3.20;99.90
57026;DHT22;43961;52.940;6.834;2024-02-26T05:47:21;3.20;99.90
57026;DHT22;43961;52.940;6.834;2024-02-26T05:49:46;3.20;99.90
57026;DHT22;43961;52.940;6.834;2024-02-26T05:52:12;3.20;99.90
57026;DHT22;43961;52.940;6.834;2024-02-26T05:54:37;3.20;99.90
57026;DHT22;43961;52.940;6.834;2024-02-26T05:57:03;3.20;99.90
57026;DHT22;43961;52.940;6.834;2024-02-26T05:59:29;3.20;99.90
57026;DHT22;43961;52.940;6.834;2024-02-26T06:01:54;3.20;99.90
57026;DHT22;43961;52.940;6.834;2024-02-26T06:04:20;3.20;99.90
57026;DHT22;43961;52.940;6.834;2024-02-26T06:06:46;3.20;99.90
57026;DHT22;43961;52.940;6.834;2024-02-26T06:09:12;3.20;99.90
57026;DHT22;43961;52.940;6.834;2024-02-26T06:11:37;3.30;99.90
57026;DHT22;43961;52.940;6.834;2024-02-26T06:14:03;3.30;99.90
57026;DHT22;43961;52.940;6.834;2024-02-26T06:16:30;3.30;99.90
57026;DHT22;43961;52.940;6.834;2024-02-26T06:18:56;3.30;99.90
57026;DHT22;43961;52.940;6.834;2024-02-26T06:21:23;3.30;99.90
57026;DHT22;43961;52.940;6.834;2024-02-26T06:23:48;3.30;99.90
57026;DHT22;43961;52.940;6.834;2024-02-26T06:26:16;3.30;99.90
57026;DHT22;43961;52.940;6.834;2024-02-26T06:28:42;3.30;99.90
57026;DHT22;43961;52.940;6.834;2024-02-26T06:31:08;3.40;99.90
57026;DHT22;43961;52.940;6.834;2024-02-26T06:33:33;3.30;99.90
57026;DHT22;43961;52.940;6.834;2024-02-26T06:35:59;3.30;99.90
57026;DHT22;43961;52.940;6.834;2024-02-26T06:38:25;3.30;99.90
57026;DHT22;43961;52.940;6.834;2024-02-26T06:40:50;3.30;99.90
57026;DHT22;43961;52.940;6.834;2024-02-26T06:43:16;3.30;99.90
57026;DHT22;43961;52.940;6.834;2024-02-26T06:45:42;3.30;99.90
57026;DHT22;43961;52.940;6.834;2024-02-26T06:48:08;3.30;99.90
57026;DHT22;43961;52.940;6.834;2024-02-26T06:50:33;3.30;99.90
57026;DHT22;43961;52.940;6.834;2024-02-26T06:52:59;3.30;99.90
57026;DHT22;43961;52.940;6.834;2024-02-26T06:55:25;3.30;99.90
57026;DHT22;43961;52.940;6.834;2024-02-26T06:57:50;3.40;99.90
57026;DHT22;43961;52.940;6.834;2024-02-26T07:00:16;3.40;99.90
57026;DHT22;43961;52.940;6.834;2024-02-26T07:02:45;3.40;99.90
57026;DHT22;43961;52.940;6.834;2024-02-26T07:05:11;3.40;99.90
57026;DHT22;43961;52.940;6.834;2024-02-26T07:07:37;3.40;99.90
57026;DHT22;43961;52.940;6.834;2024-02-26T07:10:03;3.40;99.90
57026;DHT22;43961;52.940;6.834;2024-02-26T07:12:31;3.50;99.90
57026;DHT22;43961;52.940;6.834;2024-02-26T07:14:56;3.50;99.90
57026;DHT22;43961;52.940;6.834;2024-02-26T07:17:23;3.50;99.90
57026;DHT22;43961;52.940;6.834;2024-02-26T07:19:49;3.50;99.90
57026;DHT22;43961;52.940;6.834;2024-02-26T07:22:15;3.50;99.90
57026;DHT22;43961;52.940;6.834;2024-02-26T07:24:41;3.50;99.90
57026;DHT22;43961;52.940;6.834;2024-02-26T07:27:07;3.50;99.90
57026;DHT22;43961;52.940;6.834;2024-02-26T07:29:32;3.60;99.90
57026;DHT22;43961;52.940;6.834;2024-02-26T07:31:58;3.60;99.90
57026;DHT22;43961;52.940;6.834;2024-02-26T07:34:24;3.60;99.90
57026;DHT22;43961;52.940;6.834;2024-02-26T07:36:57;3.60;99.90
57026;DHT22;43961;52.940;6.834;2024-02-26T07:39:22;3.70;99.90
57026;DHT22;43961;52.940;6.834;2024-02-26T07:41:48;3.70;99.90
57026;DHT22;43961;52.940;6.834;2024-02-26T07:44:17;3.70;99.90
57026;DHT22;43961;52.940;6.834;2024-02-26T07:46:42;3.70;99.90
57026;DHT22;43961;52.940;6.834;2024-02-26T07:49:08;3.70;99.90
57026;DHT22;43961;52.940;6.834;2024-02-26T07:51:33;3.80;99.90
57026;DHT22;43961;52.940;6.834;2024-02-26T07:54:00;3.80;99.90
57026;DHT22;43961;52.940;6.834;2024-02-26T07:56:26;3.80;99.90
57026;DHT22;43961;52.940;6.834;2024-02-26T07:58:52;3.80;99.90
57026;DHT22;43961;52.940;6.834;2024-02-26T08:01:17;3.80;99.90
57026;DHT22;43961;52.940;6.834;2024-02-26T08:03:43;3.90;99.90
57026;DHT22;43961;52.940;6.834;2024-02-26T08:06:09;3.90;99.90
57026;DHT22;43961;52.940;6.834;2024-02-26T08:08:35;3.90;99.90
57026;DHT22;43961;52.940;6.834;2024-02-26T08:11:03;3.90;99.90
57026;DHT22;43961;52.940;6.834;2024-02-26T08:13:28;4.00;99.90
57026;DHT22;43961;52.940;6.834;2024-02-26T08:15:55;4.00;99.90
57026;DHT22;43961;52.940;6.834;2024-02-26T08:18:20;4.00;99.90
57026;DHT22;43961;52.940;6.834;2024-02-26T08:20:46;4.00;99.90
57026;DHT22;43961;52.940;6.834;2024-02-26T08:23:14;4.00;99.90
57026;DHT22;43961;52.940;6.834;2024-02-26T08:25:39;4.00;99.90
57026;DHT22;43961;52.940;6.834;2024-02-26T08:28:05;4.10;99.90
57026;DHT22;43961;52.940;6.834;2024-02-26T08:30:31;4.10;99.90
57026;DHT22;43961;52.940;6.834;2024-02-26T08:32:57;4.10;99.90
57026;DHT22;43961;52.940;6.834;2024-02-26T08:35:22;4.10;99.90
57026;DHT22;43961;52.940;6.834;2024-02-26T08:37:48;4.10;99.90
57026;DHT22;43961;52.940;6.834;2024-02-26T08:40:14;4.20;99.90
57026;DHT22;43961;52.940;6.834;2024-02-26T08:42:40;4.20;99.90
57026;DHT22;43961;52.940;6.834;2024-02-26T08:45:06;4.20;99.90
57026;DHT22;43961;52.940;6.834;2024-02-26T08:47:32;4.20;99.90
57026;DHT22;43961;52.940;6.834;2024-02-26T08:49:58;4.20;99.90
57026;DHT22;43961;52.940;6.834;2024-02-26T08:52:23;4.20;99.90
57026;DHT22;43961;52.940;6.834;2024-02-26T08:54:50;4.20;99.90
57026;DHT22;43961;52.940;6.834;2024-02-26T08:57:16;4.30;99.90
57026;DHT22;43961;52.940;6.834;2024-02-26T08:59:41;4.40;99.90
57026;DHT22;43961;52.940;6.834;2024-02-26T09:02:08;4.30;99.90
57026;DHT22;43961;52.940;6.834;2024-02-26T09:04:34;4.30;99.90
57026;DHT22;43961;52.940;6.834;2024-02-26T09:07:01;4.40;99.90
57026;DHT22;43961;52.940;6.834;2024-02-26T09:09:27;4.40;99.90
57026;DHT22;43961;52.940;6.834;2024-02-26T09:11:53;4.40;99.90
57026;DHT22;43961;52.940;6.834;2024-02-26T09:14:20;4.40;99.90
57026;DHT22;43961;52.940;6.834;2024-02-26T09:16:46;4.50;99.90
57026;DHT22;43961;52.940;6.834;2024-02-26T09:19:14;4.50;99.90
57026;DHT22;43961;52.940;6.834;2024-02-26T09:21:45;4.50;99.90
57026;DHT22;43961;52.940;6.834;2024-02-26T09:24:12;4.50;99.90
57026;DHT22;43961;52.940;6.834;2024-02-26T09:26:38;4.50;99.90
57026;DHT22;43961;52.940;6.834;2024-02-26T09:29:03;4.60;99.90
57026;DHT22;43961;52.940;6.834;2024-02-26T09:31:30;4.60;99.90
57026;DHT22;43961;52.940;6.834;2024-02-26T09:33:56;4.60;99.90
57026;DHT22;43961;52.940;6.834;2024-02-26T09:36:23;4.60;99.90
57026;DHT22;43961;52.940;6.834;2024-02-26T09:38:48;4.60;99.90
57026;DHT22;43961;52.940;6.834;2024-02-26T09:41:15;4.60;99.90
57026;DHT22;43961;52.940;6.834;2024-02-26T09:43:45;4.60;99.90
57026;DHT22;43961;52.940;6.834;2024-02-26T09:46:11;4.60;99.90
57026;DHT22;43961;52.940;6.834;2024-02-26T09:48:38;4.70;99.90
57026;DHT22;43961;52.940;6.834;2024-02-26T09:51:04;4.70;99.90
57026;DHT22;43961;52.940;6.834;2024-02-26T09:53:31;4.80;99.90
57026;DHT22;43961;52.940;6.834;2024-02-26T09:55:58;4.70;99.90
57026;DHT22;43961;52.940;6.834;2024-02-26T09:58:24;4.70;99.90
57026;DHT22;43961;52.940;6.834;2024-02-26T10:00:56;4.70;99.90
57026;DHT22;43961;52.940;6.834;2024-02-26T10:03:27;4.80;99.90
57026;DHT22;43961;52.940;6.834;2024-02-26T10:05:53;4.80;99.90
57026;DHT22;43961;52.940;6.834;2024-02-26T10:08:21;4.80;99.90
57026;DHT22;43961;52.940;6.834;2024-02-26T10:10:49;4.80;99.90
57026;DHT22;43961;52.940;6.834;2024-02-26T10:13:15;4.80;99.90
57026;DHT22;43961;52.940;6.834;2024-02-26T10:15:41;4.90;99.90
57026;DHT22;43961;52.940;6.834;2024-02-26T10:18:07;4.80;99.90
57026;DHT22;43961;52.940;6.834;2024-02-26T10:20:32;4.80;99.90
57026;DHT22;43961;52.940;6.834;2024-02-26T10:23:01;4.90;99.90
57026;DHT22;43961;52.940;6.834;2024-02-26T10:25:27;4.80;99.90
57026;DHT22;43961;52.940;6.834;2024-02-26T10:27:53;4.80;99.90
57026;DHT22;43961;52.940;6.834;2024-02-26T10:30:20;4.80;99.90
57026;DHT22;43961;52.940;6.834;2024-02-26T10:32:47;4.80;99.90
57026;DHT22;43961;52.940;6.834;2024-02-26T10:35:14;4.80;99.90
57026;DHT22;43961;52.940;6.834;2024-02-26T10:37:43;4.80;99.90
57026;DHT22;43961;52.940;6.834;2024-02-26T10:40:13;4.90;99.90
57026;DHT22;43961;52.940;6.834;2024-02-26T10:42:39;4.90;99.90
57026;DHT22;43961;52.940;6.834;2024-02-26T10:45:06;4.90;99.90
57026;DHT22;43961;52.940;6.834;2024-02-26T10:47:31;4.90;99.90
57026;DHT22;43961;52.940;6.834;2024-02-26T10:49:59;4.90;99.90
57026;DHT22;43961;52.940;6.834;2024-02-26T10:52:27;4.90;99.90
57026;DHT22;43961;52.940;6.834;2024-02-26T10:54:56;5.00;99.90
57026;DHT22;43961;52.940;6.834;2024-02-26T10:57:24;5.00;99.90
57026;DHT22;43961;52.940;6.834;2024-02-26T10:59:52;5.10;99.90
57026;DHT22;43961;52.940;6.834;2024-02-26T11:02:19;5.10;99.90
57026;DHT22;43961;52.940;6.834;2024-02-26T11:04:46;5.10;99.90
57026;DHT22;43961;52.940;6.834;2024-02-26T11:07:13;5.20;99.90
57026;DHT22;43961;52.940;6.834;2024-02-26T11:09:40;5.20;99.90
57026;DHT22;43961;52.940;6.834;2024-02-26T11:12:11;5.20;99.90
57026;DHT22;43961;52.940;6.834;2024-02-26T11:14:42;5.30;99.90
57026;DHT22;43961;52.940;6.834;2024-02-26T11:17:09;5.30;99.90
57026;DHT22;43961;52.940;6.834;2024-02-26T11:19:38;5.40;99.90
57026;DHT22;43961;52.940;6.834;2024-02-26T11:22:04;5.40;99.90
57026;DHT22;43961;52.940;6.834;2024-02-26T11:24:30;5.40;99.90
57026;DHT22;43961;52.940;6.834;2024-02-26T11:26:59;5.50;99.90
57026;DHT22;43961;52.940;6.834;2024-02-26T11:29:39;5.50;99.90
57026;DHT22;43961;52.940;6.834;2024-02-26T11:32:07;5.50;99.90
57026;DHT22;43961;52.940;6.834;2024-02-26T11:34:32;5.50;99.90
57026;DHT22;43961;52.940;6.834;2024-02-26T11:37:10;5.50;99.90
57026;DHT22;43961;52.940;6.834;2024-02-26T11:39:36;5.60;99.90
57026;DHT22;43961;52.940;6.834;2024-02-26T11:42:09;5.60;99.90
57026;DHT22;43961;52.940;6.834;2024-02-26T11:44:35;5.70;99.90
57026;DHT22;43961;52.940;6.834;2024-02-26T11:47:14;5.70;99.90
57026;DHT22;43961;52.940;6.834;2024-02-26T11:49:43;5.80;99.90
57026;DHT22;43961;52.940;6.834;2024-02-26T11:52:09;5.90;99.90
57026;DHT22;43961;52.940;6.834;2024-02-26T11:54:51;5.90;99.90
57026;DHT22;43961;52.940;6.834;2024-02-26T11:57:40;6.00;99.90
57026;DHT22;43961;52.940;6.834;2024-02-26T12:02:45;5.90;99.90
57026;DHT22;43961;52.940;6.834;2024-02-26T12:07:44;5.90;99.90
57026;DHT22;43961;52.940;6.834;2024-02-26T12:10:33;5.80;99.90
57026;DHT22;43961;52.940;6.834;2024-02-26T12:15:37;5.80;99.90
57026;DHT22;43961;52.940;6.834;2024-02-26T12:18:04;5.90;99.90
57026;DHT22;43961;52.940;6.834;2024-02-26T12:20:30;5.80;99.90
57026;DHT22;43961;52.940;6.834;2024-02-26T12:22:56;5.80;99.90
57026;DHT22;43961;52.940;6.834;2024-02-26T12:25:25;5.80;99.90
57026;DHT22;43961;52.940;6.834;2024-02-26T12:27:54;5.80;99.90
57026;DHT22;43961;52.940;6.834;2024-02-26T12:30:20;5.90;99.90
57026;DHT22;43961;52.940;6.834;2024-02-26T12:32:51;5.90;99.90
57026;DHT22;43961;52.940;6.834;2024-02-26T12:35:17;5.90;99.90
57026;DHT22;43961;52.940;6.834;2024-02-26T12:37:44;6.00;99.90
57026;DHT22;43961;52.940;6.834;2024-02-26T12:40:10;6.00;99.90
57026;DHT22;43961;52.940;6.834;2024-02-26T12:42:37;5.90;99.90
57026;DHT22;43961;52.940;6.834;2024-02-26T12:45:10;5.90;99.90
57026;DHT22;43961;52.940;6.834;2024-02-26T12:50:03;6.00;99.90
57026;DHT22;43961;52.940;6.834;2024-02-26T12:52:31;5.90;99.90
57026;DHT22;43961;52.940;6.834;2024-02-26T12:54:57;5.90;99.90
57026;DHT22;43961;52.940;6.834;2024-02-26T12:57:23;6.00;99.90
57026;DHT22;43961;52.940;6.834;2024-02-26T12:59:49;6.00;99.90
57026;DHT22;43961;52.940;6.834;2024-02-26T13:02:15;6.00;99.90
57026;DHT22;43961;52.940;6.834;2024-02-26T13:04:41;6.00;99.90
57026;DHT22;43961;52.940;6.834;2024-02-26T13:07:06;6.00;99.90
57026;DHT22;43961;52.940;6.834;2024-02-26T13:09:33;5.90;99.90
57026;DHT22;43961;52.940;6.834;2024-02-26T13:12:03;5.90;99.90
57026;DHT22;43961;52.940;6.834;2024-02-26T13:14:29;5.90;99.90
57026;DHT22;43961;52.940;6.834;2024-02-26T13:17:00;5.90;99.90
57026;DHT22;43961;52.940;6.834;2024-02-26T13:19:26;5.90;99.90
57026;DHT22;43961;52.940;6.834;2024-02-26T13:21:54;5.80;99.90
57026;DHT22;43961;52.940;6.834;2024-02-26T13:24:20;5.80;99.90
57026;DHT22;43961;52.940;6.834;2024-02-26T13:26:46;5.80;99.90
57026;DHT22;43961;52.940;6.834;2024-02-26T13:29:18;5.80;99.90
57026;DHT22;43961;52.940;6.834;2024-02-26T13:31:44;5.80;99.90
57026;DHT22;43961;52.940;6.834;2024-02-26T13:34:09;5.70;99.90
57026;DHT22;43961;52.940;6.834;2024-02-26T13:36:35;5.70;99.90
57026;DHT22;43961;52.940;6.834;2024-02-26T13:39:01;5.70;99.90
57026;DHT22;43961;52.940;6.834;2024-02-26T13:41:30;5.60;99.90
57026;DHT22;43961;52.940;6.834;2024-02-26T13:43:56;5.60;99.90
57026;DHT22;43961;52.940;6.834;2024-02-26T13:46:23;5.50;99.90
57026;DHT22;43961;52.940;6.834;2024-02-26T13:48:48;5.50;99.90
57026;DHT22;43961;52.940;6.834;2024-02-26T13:51:14;5.50;99.90
57026;DHT22;43961;52.940;6.834;2024-02-26T13:53:40;5.40;99.90
57026;DHT22;43961;52.940;6.834;2024-02-26T13:56:06;5.40;99.90
57026;DHT22;43961;52.940;6.834;2024-02-26T13:58:32;5.40;99.90
57026;DHT22;43961;52.940;6.834;2024-02-26T14:00:58;5.40;99.90
57026;DHT22;43961;52.940;6.834;2024-02-26T14:03:25;5.30;99.90
57026;DHT22;43961;52.940;6.834;2024-02-26T14:05:50;5.40;99.90
57026;DHT22;43961;52.940;6.834;2024-02-26T14:08:16;5.30;99.90
57026;DHT22;43961;52.940;6.834;2024-02-26T14:10:41;5.40;99.90
57026;DHT22;43961;52.940;6.834;2024-02-26T14:13:07;5.40;99.90
57026;DHT22;43961;52.940;6.834;2024-02-26T14:15:34;5.40;99.90
57026;DHT22;43961;52.940;6.834;2024-02-26T14:18:01;5.40;99.90
57026;DHT22;43961;52.940;6.834;2024-02-26T14:20:28;5.40;99.90
57026;DHT22;43961;52.940;6.834;2024-02-26T14:22:55;5.40;99.90
57026;DHT22;43961;52.940;6.834;2024-02-26T14:25:21;5.40;99.90
57026;DHT22;43961;52.940;6.834;2024-02-26T14:27:47;5.30;99.90
57026;DHT22;43961;52.940;6.834;2024-02-26T14:30:13;5.30;99.90
57026;DHT22;43961;52.940;6.834;2024-02-26T14:32:39;5.30;99.90
57026;DHT22;43961;52.940;6.834;2024-02-26T14:35:07;5.30;99.90
57026;DHT22;43961;52.940;6.834;2024-02-26T14:37:33;5.30;99.90
57026;DHT22;43961;52.940;6.834;2024-02-26T14:39:58;5.30;99.90
57026;DHT22;43961;52.940;6.834;2024-02-26T14:42:24;5.30;99.90
57026;DHT22;43961;52.940;6.834;2024-02-26T14:44:50;5.30;99.90
57026;DHT22;43961;52.940;6.834;2024-02-26T14:47:16;5.30;99.90
57026;DHT22;43961;52.940;6.834;2024-02-26T14:49:42;5.20;99.90
57026;DHT22;43961;52.940;6.834;2024-02-26T14:52:08;5.20;99.90
57026;DHT22;43961;52.940;6.834;2024-02-26T14:54:34;5.20;99.90
57026;DHT22;43961;52.940;6.834;2024-02-26T14:57:05;5.30;99.90
57026;DHT22;43961;52.940;6.834;2024-02-26T14:59:31;5.30;99.90
57026;DHT22;43961;52.940;6.834;2024-02-26T15:01:57;5.30;99.90
57026;DHT22;43961;52.940;6.834;2024-02-26T15:04:23;5.30;99.90
57026;DHT22;43961;52.940;6.834;2024-02-26T15:06:48;5.30;99.90
57026;DHT22;43961;52.940;6.834;2024-02-26T15:09:14;5.30;99.90
57026;DHT22;43961;52.940;6.834;2024-02-26T15:11:40;5.30;99.90
57026;DHT22;43961;52.940;6.834;2024-02-26T15:14:07;5.40;99.90
57026;DHT22;43961;52.940;6.834;2024-02-26T15:16:34;5.40;99.90
57026;DHT22;43961;52.940;6.834;2024-02-26T15:18:59;5.40;99.90
57026;DHT22;43961;52.940;6.834;2024-02-26T15:21:25;5.40;99.90
57026;DHT22;43961;52.940;6.834;2024-02-26T15:23:52;5.40;99.90
57026;DHT22;43961;52.940;6.834;2024-02-26T15:26:19;5.30;99.90
57026;DHT22;43961;52.940;6.834;2024-02-26T15:28:45;5.30;99.90
57026;DHT22;43961;52.940;6.834;2024-02-26T15:31:11;5.30;99.90
57026;DHT22;43961;52.940;6.834;2024-02-26T15:33:37;5.30;99.90
57026;DHT22;43961;52.940;6.834;2024-02-26T15:36:03;5.30;99.90
57026;DHT22;43961;52.940;6.834;2024-02-26T15:38:28;5.30;99.90
57026;DHT22;43961;52.940;6.834;2024-02-26T15:40:55;5.30;99.90
57026;DHT22;43961;52.940;6.834;2024-02-26T15:43:21;5.20;99.90
57026;DHT22;43961;52.940;6.834;2024-02-26T15:45:47;5.20;99.90
57026;DHT22;43961;52.940;6.834;2024-02-26T15:48:13;5.20;99.90
57026;DHT22;43961;52.940;6.834;2024-02-26T15:50:39;5.20;99.90